Terminal Aerodrome Forecast
Issued by NWS

Home | Current Version | Previous Version | Text Only | Print | Product List | Glossary On
Versions: 1 2 3 4 5 6 7 8 9 10 11 12 13 14 15 16 17 18 19 20 21 22 23 24 25 26 27 28 29 30 31 32 33 34 35
000
FTUS45 KBOU 240415 AAB
TAFAPA
TAF AMD
KAPA 240415Z 2404/2424 14015KT P6SM BKN120 BKN200
     FM240700 22010KT P6SM SCT130 BKN220
     FM241600 VRB06KT P6SM FEW090
     FM241900 12007KT P6SM SCT090
     FM242200 10008KT P6SM SCT090 BKN130 PROB30 2422/2424 VRB20G30KT
      -TSRA BKN090CB=

USA.gov is the U.S. government's official web portal to all federal, state and local government web resources and services.